AirNav   Everest Fuels
 
 688 users online  

SN34 Rucker Airport
Clearwater, Kansas, USA

GOING TO CLEARWATER?


FAA INFORMATION EFFECTIVE 28 MARCH 2019

Location

FAA Identifier: SN34
Lat/Long: 37-34-30.0580N / 097-29-31.1690W
37-34.500967N / 097-29.519483W
37.5750161 / -97.4919914
(estimated)
Elevation: 1300 ft. / 396 m (estimated)
Variation: 07E (1985)
From city: 4 miles N of CLEARWATER, KS
Time zone: UTC -5 (UTC -6 during Standard Time)
Zip code: 67026

Airport Operations

Airport use: Private use. Permission required prior to landing
Activation date: 04/1971
Control tower: no
ARTCC: KANSAS CITY CENTER
FSS: WICHITA FLIGHT SERVICE STATION
Attendance: UNATNDD
Wind indicator: no
Segmented circle: no

Airport Communications

WX ASOS at ICT (5 nm NE): PHONE 316-945-8022
WX AWOS-3PT at BEC (15 nm NE): 119.45 (316-515-7116)
WX AWOS-3 at EGT (16 nm S): 118.875 (620-326-2470)
WX ASOS at AAO (17 nm NE): 134.025 (316-636-2541)

Nearby radio navigation aids

VOR radial/distance  VOR name  Freq  Var
ICTr150/11.1WICHITA VORTAC113.8007E
HUTr136/32.9HUTCHINSON VOR/DME116.8004E

 
NDB name  Hdg/Dist  Freq  Var  ID
PICHE260/1.733204EIC .. -.-.
NEWTON193/31.128106EEWK . .-- -.-

Airport Services

Runway Information

Runway 17/35

Dimensions: 2600 x 100 ft. / 792 x 30 m
Surface: turf
RUNWAY 17  RUNWAY 35
Traffic pattern: rightleft

Airport Ownership and Management from official FAA records

Ownership: Privately-owned
Owner: RUCKER FIELD ASSOCIATION
13149 WEST 63RD ST SOUTH
CLEARWATER, KS 67026
Phone 316-640-4747
Manager: AARON TOBIAS
13149 WEST 63RD ST SOUTH
CLEARWATER, KS 67026
Phone 316-640-4747

Airport Operational Statistics

Aircraft based on the field: 7
Single engine airplanes: 6
Multi engine airplanes: 1
    

Additional Remarks

RY 35 272 FT RADIO TWR 1100 FT W OF NORTH END OF RY.
CTC ICT TWR FOR ADZYS, DUE TO CLOSE PROXIMITY TO CLASS C SFC ASP.
RWY 17- RP ONLY

Instrument Procedures

There are no published instrument procedures at SN34.

Some nearby airports with instrument procedures:

KICT - Wichita Dwight D Eisenhower National Airport (5 nm NE)
KIAB - Mc Connell Air Force Base (11 nm E)
KCEA - Cessna Aircraft Field Airport (12 nm E)
KBEC - Beech Factory Airport (15 nm NE)
KEGT - Wellington Municipal Airport (16 nm S)
KAAO - Colonel James Jabara Airport (17 nm NE)
 
Loc | Ops | Rwys | IFR | FBO | Links
Com | Nav | Svcs | Stats | Notes

Kansas City Aviation Department
 
Area around SN34 (Rucker Airport)
 
Road maps at: MapQuest Bing Google
 
Aerial photo
No photo
 
Sectional chart

 
Airport distance calculator
Flying to Rucker Airport? Find the distance to fly.

From to SN34

Sunrise and sunset
Times for 20-Apr-2019
 Local
(UTC-5)
 Zulu
(UTC)
Morning civil twilight06:2211:22
Sunrise06:4911:49
Sunset20:0901:09
Evening civil twilight20:3601:36

Current date and time
Zulu (UTC)  21-Apr-2019 03:19:54
Local (UTC-5)  20-Apr-2019 22:19:54
 
METAR
KICT 
5nm NE 
210253Z 17010KT 10SM CLR 19/09 A2980 RMK AO2 SLP084 T01890089 53005 $
KIAB 
11nm E 
210256Z AUTO 12010KT 10SM CLR 19/08 A2981 RMK AO2 SLP090 T01880084 53004
KBEC 
15nm NE 
210255Z AUTO 15007KT 10SM CLR 17/09 A2981 RMK AO2 T01700090
KAAO 
17nm NE 
210254Z AUTO 16007KT 10SM CLR 17/08 A2981 RMK AO2 SLP088 T01720083 53005 TSNO
TAF
KICT 
5nm NE 
201720Z 2018/2118 19015G25KT P6SM SKC FM210400 17015KT P6SM SCT150 WS020/20045KT FM211400 19020KT P6SM FEW150
NOTAMs
Click for the latest NOTAMs
NOTAMs are issued by the DoD/FAA and will open in a separate window not controlled by AirNav.

 

 
 

Would you like to see your business listed on this page?

 If your business provides an interesting product or service to pilots, flight crews, aircraft, or users of the Rucker Airport, you should consider listing it here.  To start the listing process, click on the button below
 
Add a business
 

Other Pages about Rucker Airport

Update a link
 
Copyright © AirNav, LLC. All rights reserved. Privacy Policy  Contact